createdAt,value
2018-01-16T00:00:05.926Z,957.78
2018-01-16T00:01:05.320Z,957.67
2018-01-16T00:02:05.163Z,957.68
2018-01-16T00:03:04.978Z,957.65
2018-01-16T00:04:05.063Z,957.75
2018-01-16T00:05:05.579Z,957.62
2018-01-16T00:06:05.308Z,957.70
2018-01-16T00:07:05.458Z,957.57
2018-01-16T00:08:05.132Z,957.65
2018-01-16T00:09:05.325Z,957.71
2018-01-16T00:10:05.035Z,957.81
2018-01-16T00:11:05.169Z,957.62
2018-01-16T00:12:05.008Z,957.81
2018-01-16T00:13:06.193Z,957.68
2018-01-16T00:14:10.160Z,957.70
2018-01-16T00:15:05.377Z,957.56
2018-01-16T00:16:05.404Z,957.59
2018-01-16T00:17:05.917Z,957.59
2018-01-16T00:18:06.027Z,957.56
2018-01-16T00:19:06.030Z,957.53
2018-01-16T00:20:05.508Z,957.56
2018-01-16T00:21:05.148Z,957.70
2018-01-16T00:22:10.002Z,957.72
2018-01-16T00:23:05.261Z,957.67
2018-01-16T00:24:04.957Z,957.67
2018-01-16T00:25:05.632Z,957.56
2018-01-16T00:26:05.335Z,957.70
2018-01-16T00:27:05.832Z,957.72
2018-01-16T00:28:05.772Z,957.72
2018-01-16T00:29:05.038Z,957.64
2018-01-16T00:30:05.805Z,957.85
2018-01-16T00:31:05.108Z,957.69
2018-01-16T00:32:05.639Z,957.72
2018-01-16T00:33:05.552Z,957.80
2018-01-16T00:34:05.200Z,957.91
2018-01-16T00:35:05.492Z,957.93
2018-01-16T00:36:05.689Z,957.99
2018-01-16T00:37:05.474Z,957.82
2018-01-16T00:38:05.300Z,957.79
2018-01-16T00:39:05.554Z,957.90
2018-01-16T00:40:05.547Z,957.93
2018-01-16T00:41:05.222Z,957.75
2018-01-16T00:42:04.916Z,957.82
2018-01-16T00:43:05.178Z,957.93
2018-01-16T00:44:05.034Z,957.76
2018-01-16T00:45:05.598Z,957.93
2018-01-16T00:46:05.884Z,957.87
2018-01-16T00:47:05.731Z,957.82
2018-01-16T00:48:05.258Z,957.82
2018-01-16T00:49:05.571Z,957.85
2018-01-16T00:50:05.100Z,957.82
2018-01-16T00:51:05.314Z,957.72
2018-01-16T00:52:05.106Z,957.79
2018-01-16T00:53:05.912Z,957.76
2018-01-16T00:54:05.638Z,957.82
2018-01-16T00:55:05.431Z,957.85
2018-01-16T00:56:05.220Z,957.71
2018-01-16T00:57:05.699Z,957.82
2018-01-16T00:58:05.924Z,957.76
2018-01-16T00:59:05.688Z,957.76
2018-01-16T01:00:05.684Z,957.74
2018-01-16T01:01:05.721Z,957.55
2018-01-16T01:02:05.843Z,957.68
2018-01-16T01:03:05.481Z,957.35
2018-01-16T01:04:04.973Z,957.43
2018-01-16T01:05:05.733Z,957.43
2018-01-16T01:06:05.942Z,957.34
2018-01-16T01:07:06.035Z,957.20
2018-01-16T01:08:05.017Z,957.23
2018-01-16T01:09:05.714Z,957.20
2018-01-16T01:10:05.744Z,957.37
2018-01-16T01:11:05.229Z,957.20
2018-01-16T01:12:04.982Z,957.20
2018-01-16T01:13:05.452Z,956.99
2018-01-16T01:14:05.587Z,957.17
2018-01-16T01:15:10.759Z,957.17
2018-01-16T01:16:05.766Z,957.07
2018-01-16T01:17:05.695Z,956.98
2018-01-16T01:18:05.758Z,957.04
2018-01-16T01:19:05.131Z,957.06
2018-01-16T01:20:05.342Z,957.22
2018-01-16T01:21:06.032Z,957.36
2018-01-16T01:22:05.827Z,957.36
2018-01-16T01:23:05.331Z,957.36
2018-01-16T01:24:04.976Z,957.19
2018-01-16T01:25:05.868Z,957.19
2018-01-16T01:26:05.317Z,957.16
2018-01-16T01:27:10.069Z,957.16
2018-01-16T01:28:05.787Z,957.11
2018-01-16T01:29:05.578Z,957.28
2018-01-16T01:30:05.517Z,957.36
2018-01-16T01:31:05.397Z,957.30
2018-01-16T01:32:05.351Z,957.24
2018-01-16T01:33:05.133Z,957.27
2018-01-16T01:34:05.090Z,957.27
2018-01-16T01:35:05.577Z,957.24
2018-01-16T01:36:05.202Z,957.02
2018-01-16T01:37:06.966Z,956.88
2018-01-16T01:38:05.423Z,956.82
2018-01-16T01:39:05.875Z,956.82
2018-01-16T01:40:05.819Z,956.71
2018-01-16T01:41:05.714Z,956.63
2018-01-16T01:42:05.259Z,956.63
2018-01-16T01:43:05.453Z,956.68
2018-01-16T01:44:04.968Z,956.63
2018-01-16T01:45:05.675Z,956.54
2018-01-16T01:46:05.497Z,956.62
2018-01-16T01:47:05.600Z,956.54
2018-01-16T01:48:05.406Z,956.57
2018-01-16T01:49:06.032Z,956.57
2018-01-16T01:50:04.952Z,956.48
2018-01-16T01:51:05.940Z,956.48
2018-01-16T01:52:05.801Z,956.54
2018-01-16T01:53:05.527Z,956.51
2018-01-16T01:54:05.143Z,956.34
2018-01-16T01:55:05.684Z,956.43
2018-01-16T01:56:05.772Z,956.45
2018-01-16T01:57:05.562Z,956.34
2018-01-16T01:58:05.672Z,956.40
2018-01-16T01:59:05.647Z,956.48
2018-01-16T02:00:05.241Z,956.31
2018-01-16T02:01:05.915Z,956.31
2018-01-16T02:02:10.887Z,956.26
2018-01-16T02:03:06.009Z,956.20
2018-01-16T02:04:05.595Z,956.15
2018-01-16T02:05:05.340Z,956.17
2018-01-16T02:06:05.208Z,956.20
2018-01-16T02:07:05.602Z,956.26
2018-01-16T02:08:05.590Z,956.34
2018-01-16T02:09:05.099Z,956.26
2018-01-16T02:10:05.202Z,956.20
2018-01-16T02:11:05.056Z,956.20
2018-01-16T02:12:05.817Z,956.31
2018-01-16T02:13:05.616Z,956.31
2018-01-16T02:14:05.028Z,956.26
2018-01-16T02:15:05.925Z,956.15
2018-01-16T02:16:05.507Z,956.17
2018-01-16T02:17:05.551Z,956.34
2018-01-16T02:18:05.465Z,956.09
2018-01-16T02:19:05.306Z,956.18
2018-01-16T02:20:05.929Z,956.35
2018-01-16T02:21:10.987Z,956.29
2018-01-16T02:22:05.728Z,956.29
2018-01-16T02:23:05.181Z,956.24
2018-01-16T02:24:05.793Z,956.43
2018-01-16T02:25:05.866Z,956.27
2018-01-16T02:26:05.605Z,956.19
2018-01-16T02:27:05.637Z,956.27
2018-01-16T02:28:05.820Z,956.41
2018-01-16T02:29:05.894Z,956.39
2018-01-16T02:30:05.351Z,956.33
2018-01-16T02:31:06.183Z,956.42
2018-01-16T02:32:05.302Z,956.53
2018-01-16T02:33:05.404Z,956.56
2018-01-16T02:34:05.256Z,956.48
2018-01-16T02:35:05.650Z,956.33
2018-01-16T02:36:05.722Z,956.42
2018-01-16T02:37:05.709Z,956.56
2018-01-16T02:38:05.408Z,956.56
2018-01-16T02:39:05.923Z,956.36
2018-01-16T02:40:05.322Z,956.31
2018-01-16T02:41:05.238Z,956.25
2018-01-16T02:42:05.277Z,956.25
2018-01-16T02:43:05.051Z,956.22
2018-01-16T02:44:05.068Z,956.11
2018-01-16T02:45:05.930Z,956.16
2018-01-16T02:46:05.410Z,956.13
2018-01-16T02:47:05.416Z,956.30
2018-01-16T02:48:06.064Z,956.13
2018-01-16T02:49:05.024Z,956.19
2018-01-16T02:50:05.680Z,956.10
2018-01-16T02:51:05.629Z,955.94
2018-01-16T02:52:05.068Z,955.83
2018-01-16T02:53:05.904Z,955.97
2018-01-16T02:54:05.556Z,955.93
2018-01-16T02:55:05.816Z,955.96
2018-01-16T02:56:05.780Z,955.82
2018-01-16T02:57:05.712Z,956.12
2018-01-16T02:58:05.819Z,956.14
2018-01-16T02:59:05.615Z,956.12
2018-01-16T03:00:05.888Z,955.96
2018-01-16T03:01:05.892Z,956.09
2018-01-16T03:02:05.465Z,955.84
2018-01-16T03:03:05.137Z,955.76
2018-01-16T03:04:05.900Z,955.81
2018-01-16T03:05:05.755Z,955.73
2018-01-16T03:06:05.854Z,955.78
2018-01-16T03:07:05.964Z,955.78
2018-01-16T03:08:05.759Z,955.84
2018-01-16T03:09:05.210Z,955.73
2018-01-16T03:10:05.915Z,955.75
2018-01-16T03:11:05.813Z,955.75
2018-01-16T03:12:05.661Z,955.72
2018-01-16T03:13:05.856Z,955.72
2018-01-16T03:14:05.611Z,955.67
2018-01-16T03:15:05.086Z,955.72
2018-01-16T03:16:05.174Z,955.86
2018-01-16T03:17:05.475Z,955.83
2018-01-16T03:18:05.048Z,955.78
2018-01-16T03:19:05.690Z,955.72
2018-01-16T03:20:05.268Z,955.64
2018-01-16T03:21:05.855Z,955.69
2018-01-16T03:22:05.866Z,955.55
2018-01-16T03:23:10.699Z,955.71
2018-01-16T03:24:05.486Z,955.83
2018-01-16T03:25:05.007Z,955.82
2018-01-16T03:26:05.177Z,955.99
2018-01-16T03:27:05.203Z,955.93
2018-01-16T03:28:05.764Z,955.79
2018-01-16T03:29:05.482Z,956.01
2018-01-16T03:30:05.392Z,955.84
2018-01-16T03:31:05.785Z,955.89
2018-01-16T03:32:05.765Z,955.78
2018-01-16T03:33:05.196Z,955.89
2018-01-16T03:34:05.835Z,955.94
2018-01-16T03:35:05.443Z,955.91
2018-01-16T03:36:05.508Z,955.74
2018-01-16T03:37:05.866Z,955.82
2018-01-16T03:38:05.458Z,955.79
2018-01-16T03:39:05.070Z,955.78
2018-01-16T03:40:05.644Z,955.72
2018-01-16T03:41:05.113Z,955.89
2018-01-16T03:42:05.183Z,955.78
2018-01-16T03:43:05.883Z,955.80
2018-01-16T03:44:05.399Z,955.68
2018-01-16T03:45:05.299Z,955.71
2018-01-16T03:46:05.885Z,955.76
2018-01-16T03:47:05.849Z,955.71
2018-01-16T03:48:05.874Z,955.76
2018-01-16T03:49:04.990Z,955.70
2018-01-16T03:50:05.255Z,955.67
2018-01-16T03:51:05.900Z,955.72
2018-01-16T03:52:05.594Z,955.66
2018-01-16T03:53:05.680Z,955.77
2018-01-16T03:54:05.608Z,955.66
2018-01-16T03:55:05.327Z,955.66
2018-01-16T03:56:05.655Z,955.66
2018-01-16T03:57:05.656Z,955.57
2018-01-16T03:58:05.662Z,955.68
2018-01-16T03:59:05.509Z,955.54
2018-01-16T04:00:05.657Z,955.37
2018-01-16T04:01:05.237Z,955.48
2018-01-16T04:02:05.050Z,955.48
2018-01-16T04:03:05.300Z,955.56
2018-01-16T04:04:05.294Z,955.45
2018-01-16T04:05:05.398Z,955.51
2018-01-16T04:06:05.473Z,955.48
2018-01-16T04:07:05.130Z,955.42
2018-01-16T04:08:05.109Z,955.42
2018-01-16T04:09:05.844Z,955.51
2018-01-16T04:10:05.804Z,955.42
2018-01-16T04:11:05.341Z,955.50
2018-01-16T04:12:06.049Z,955.56
2018-01-16T04:13:05.307Z,955.36
2018-01-16T04:14:05.429Z,955.42
2018-01-16T04:15:05.408Z,955.50
2018-01-16T04:16:05.614Z,955.56
2018-01-16T04:17:05.816Z,955.47
2018-01-16T04:18:05.166Z,955.41
2018-01-16T04:19:05.424Z,955.55
2018-01-16T04:20:05.175Z,955.55
2018-01-16T04:21:05.464Z,955.55
2018-01-16T04:22:05.806Z,955.52
2018-01-16T04:23:05.820Z,955.50
2018-01-16T04:24:05.797Z,955.47
2018-01-16T04:25:05.571Z,955.55
2018-01-16T04:26:05.154Z,955.58
2018-01-16T04:27:05.557Z,955.61
2018-01-16T04:28:06.057Z,955.47
2018-01-16T04:29:05.891Z,955.38
2018-01-16T04:30:05.663Z,955.47
2018-01-16T04:31:05.739Z,955.47
2018-01-16T04:32:05.887Z,955.38
2018-01-16T04:33:04.979Z,955.32
2018-01-16T04:34:05.156Z,955.27
2018-01-16T04:35:04.953Z,955.32
2018-01-16T04:36:05.166Z,955.35
2018-01-16T04:37:05.399Z,955.24
2018-01-16T04:38:05.142Z,955.18
2018-01-16T04:39:05.812Z,955.26
2018-01-16T04:40:05.742Z,955.10
2018-01-16T04:41:05.527Z,955.13
2018-01-16T04:42:05.378Z,954.99
2018-01-16T04:43:05.990Z,955.16
2018-01-16T04:44:05.532Z,955.21
2018-01-16T04:45:05.669Z,955.16
2018-01-16T04:46:05.299Z,955.08
2018-01-16T04:47:05.361Z,955.10
2018-01-16T04:48:05.688Z,955.11
2018-01-16T04:49:05.757Z,955.25
2018-01-16T04:50:05.182Z,955.28
2018-01-16T04:51:05.916Z,955.06
2018-01-16T04:52:04.981Z,955.09
2018-01-16T04:53:05.711Z,955.09
2018-01-16T04:54:05.626Z,955.06
2018-01-16T04:55:05.614Z,955.20
2018-01-16T04:56:05.408Z,955.23
2018-01-16T04:57:06.093Z,955.23
2018-01-16T04:58:06.089Z,955.23
2018-01-16T04:59:05.039Z,955.23
2018-01-16T05:00:05.144Z,955.09
2018-01-16T05:01:05.426Z,955.26
2018-01-16T05:02:05.965Z,955.21
2018-01-16T05:03:05.118Z,955.35
2018-01-16T05:04:05.782Z,955.21
2018-01-16T05:05:05.329Z,955.35
2018-01-16T05:06:05.918Z,955.37
2018-01-16T05:07:05.241Z,955.26
2018-01-16T05:08:05.515Z,955.31
2018-01-16T05:09:05.254Z,955.40
2018-01-16T05:10:05.623Z,955.34
2018-01-16T05:11:05.527Z,955.14
2018-01-16T05:12:05.569Z,955.17
2018-01-16T05:13:05.198Z,955.28
2018-01-16T05:14:05.328Z,955.39
2018-01-16T05:15:05.775Z,955.14
2018-01-16T05:16:06.142Z,955.25
2018-01-16T05:17:05.944Z,955.08
2018-01-16T05:18:05.313Z,955.14
2018-01-16T05:19:04.979Z,955.22
2018-01-16T05:20:06.063Z,955.14
2018-01-16T05:21:10.552Z,955.22
2018-01-16T05:22:05.750Z,955.14
2018-01-16T05:23:05.451Z,955.25
2018-01-16T05:24:05.254Z,955.14
2018-01-16T05:25:05.696Z,955.14
2018-01-16T05:26:05.139Z,955.25
2018-01-16T05:27:05.925Z,955.19
2018-01-16T05:28:05.682Z,955.11
2018-01-16T05:29:05.780Z,955.19
2018-01-16T05:30:05.816Z,955.13
2018-01-16T05:31:05.851Z,955.13
2018-01-16T05:32:05.082Z,955.13
2018-01-16T05:33:05.995Z,955.08
2018-01-16T05:34:05.844Z,955.16
2018-01-16T05:35:05.195Z,955.19
2018-01-16T05:36:05.584Z,955.13
2018-01-16T05:37:05.589Z,955.24
2018-01-16T05:38:05.604Z,955.10
2018-01-16T05:39:05.227Z,955.02
2018-01-16T05:40:05.058Z,955.05
2018-01-16T05:41:05.867Z,955.05
2018-01-16T05:42:06.040Z,954.94
2018-01-16T05:43:06.088Z,954.88
2018-01-16T05:44:05.715Z,955.11
2018-01-16T05:45:05.441Z,955.05
2018-01-16T05:46:05.368Z,955.08
2018-01-16T05:47:05.412Z,955.16
2018-01-16T05:48:05.313Z,955.14
2018-01-16T05:49:05.192Z,955.11
2018-01-16T05:50:05.738Z,955.14
2018-01-16T05:51:05.430Z,955.03
2018-01-16T05:52:04.993Z,955.06
2018-01-16T05:53:05.909Z,955.20
2018-01-16T05:54:05.798Z,955.03
2018-01-16T05:55:05.475Z,955.11
2018-01-16T05:56:05.849Z,955.03
2018-01-16T05:57:05.806Z,954.97
2018-01-16T05:58:05.608Z,955.09
2018-01-16T05:59:05.016Z,954.92
2018-01-16T06:00:05.914Z,954.98
2018-01-16T06:01:05.268Z,954.95
2018-01-16T06:02:05.230Z,954.86
2018-01-16T06:03:05.411Z,954.98
2018-01-16T06:04:05.386Z,954.98
2018-01-16T06:05:04.996Z,954.98
2018-01-16T06:06:05.516Z,954.98
2018-01-16T06:07:05.209Z,954.84
2018-01-16T06:08:05.884Z,954.84
2018-01-16T06:09:05.651Z,954.89
2018-01-16T06:10:05.436Z,954.84
2018-01-16T06:11:06.003Z,954.90
2018-01-16T06:12:05.435Z,954.95
2018-01-16T06:13:05.320Z,954.65
2018-01-16T06:14:05.316Z,954.87
2018-01-16T06:15:05.423Z,954.79
2018-01-16T06:16:05.787Z,954.68
2018-01-16T06:17:05.468Z,954.65
2018-01-16T06:18:05.168Z,954.73
2018-01-16T06:19:05.982Z,954.63
2018-01-16T06:20:05.975Z,954.58
2018-01-16T06:21:05.436Z,954.61
2018-01-16T06:22:05.318Z,954.63
2018-01-16T06:23:06.122Z,954.66
2018-01-16T06:24:05.712Z,954.61
2018-01-16T06:25:05.628Z,954.50
2018-01-16T06:26:05.844Z,954.64
2018-01-16T06:27:05.919Z,954.51
2018-01-16T06:28:05.665Z,954.54
2018-01-16T06:29:05.987Z,954.60
2018-01-16T06:30:05.211Z,954.60
2018-01-16T06:31:06.050Z,954.65
2018-01-16T06:32:05.336Z,954.63
2018-01-16T06:33:05.415Z,954.63
2018-01-16T06:34:04.903Z,954.61
2018-01-16T06:35:05.827Z,954.68
2018-01-16T06:36:05.074Z,954.47
2018-01-16T06:37:04.894Z,954.74
2018-01-16T06:38:05.635Z,954.62
2018-01-16T06:39:05.740Z,954.53
2018-01-16T06:40:05.244Z,954.53
2018-01-16T06:41:05.825Z,954.51
2018-01-16T06:42:05.534Z,954.70
2018-01-16T06:43:05.347Z,954.67
2018-01-16T06:44:05.694Z,954.64
2018-01-16T06:45:10.689Z,954.73
2018-01-16T06:46:05.918Z,954.65
2018-01-16T06:47:05.124Z,954.70
2018-01-16T06:48:05.845Z,954.76
2018-01-16T06:49:06.104Z,954.82
2018-01-16T06:50:05.854Z,954.58
2018-01-16T06:51:05.488Z,954.65
2018-01-16T06:52:05.501Z,954.58
2018-01-16T06:53:05.906Z,954.66
2018-01-16T06:54:05.865Z,954.77
2018-01-16T06:55:10.768Z,954.59
2018-01-16T06:56:05.880Z,954.63
2018-01-16T06:57:05.984Z,954.66
2018-01-16T06:58:05.205Z,954.75
2018-01-16T06:59:05.226Z,954.72
2018-01-16T07:00:04.998Z,954.66
2018-01-16T07:01:05.802Z,954.75
2018-01-16T07:02:05.632Z,954.62
2018-01-16T07:03:05.409Z,954.59
2018-01-16T07:04:05.795Z,954.75
2018-01-16T07:05:05.750Z,954.39
2018-01-16T07:06:05.082Z,954.53
2018-01-16T07:07:05.356Z,954.47
2018-01-16T07:08:05.884Z,954.66
2018-01-16T07:09:05.452Z,954.61
2018-01-16T07:10:05.140Z,954.36
2018-01-16T07:11:05.174Z,954.52
2018-01-16T07:12:05.847Z,954.50
2018-01-16T07:13:05.846Z,954.47
2018-01-16T07:14:10.860Z,954.47
2018-01-16T07:15:10.970Z,954.38
2018-01-16T07:16:05.062Z,954.33
2018-01-16T07:17:05.253Z,954.46
2018-01-16T07:18:05.795Z,954.38
2018-01-16T07:19:05.688Z,954.33
2018-01-16T07:20:05.990Z,954.28
2018-01-16T07:21:05.647Z,954.38
2018-01-16T07:22:05.044Z,954.40
2018-01-16T07:23:10.829Z,954.51
2018-01-16T07:24:05.658Z,954.43
2018-01-16T07:25:05.667Z,954.45
2018-01-16T07:26:05.284Z,954.37
2018-01-16T07:27:05.862Z,954.45
2018-01-16T07:28:05.992Z,954.53
2018-01-16T07:29:05.521Z,954.44
2018-01-16T07:30:05.879Z,954.44
2018-01-16T07:31:05.793Z,954.44
2018-01-16T07:32:05.920Z,954.49
2018-01-16T07:33:05.949Z,954.35
2018-01-16T07:34:06.119Z,954.25
2018-01-16T07:35:05.267Z,954.24
2018-01-16T07:36:05.824Z,954.27
2018-01-16T07:37:05.063Z,954.18
2018-01-16T07:38:05.853Z,954.18
2018-01-16T07:39:05.823Z,954.34
2018-01-16T07:40:05.679Z,954.29
2018-01-16T07:41:05.159Z,954.34
2018-01-16T07:42:05.583Z,954.31
2018-01-16T07:43:05.644Z,954.14
2018-01-16T07:44:05.640Z,954.28
2018-01-16T07:45:05.912Z,954.23
2018-01-16T07:46:05.802Z,954.25
2018-01-16T07:47:05.582Z,954.22
2018-01-16T07:48:05.994Z,954.23
2018-01-16T07:49:05.781Z,954.17
2018-01-16T07:50:05.745Z,954.11
2018-01-16T07:51:05.325Z,954.22
2018-01-16T07:52:05.032Z,954.25
2018-01-16T07:53:05.925Z,954.38
2018-01-16T07:54:05.749Z,954.30
2018-01-16T07:55:05.410Z,954.35
2018-01-16T07:56:05.090Z,954.11
2018-01-16T07:57:05.681Z,954.19
2018-01-16T07:58:05.790Z,954.19
2018-01-16T07:59:05.928Z,954.16
2018-01-16T08:00:05.984Z,954.24
2018-01-16T08:01:05.447Z,954.24
2018-01-16T08:02:05.902Z,954.16
2018-01-16T08:03:05.494Z,954.16
2018-01-16T08:04:05.348Z,954.21
2018-01-16T08:05:05.981Z,954.19
2018-01-16T08:06:06.038Z,954.22
2018-01-16T08:07:05.163Z,954.22
2018-01-16T08:08:05.940Z,954.35
2018-01-16T08:09:05.480Z,954.40
2018-01-16T08:10:05.495Z,954.24
2018-01-16T08:11:05.594Z,954.33
2018-01-16T08:12:05.257Z,954.40
2018-01-16T08:13:04.944Z,954.37
2018-01-16T08:14:05.947Z,954.40
2018-01-16T08:15:05.021Z,954.37
2018-01-16T08:16:04.913Z,954.54
2018-01-16T08:17:05.584Z,954.33
2018-01-16T08:18:05.538Z,954.27
2018-01-16T08:19:05.286Z,954.30
2018-01-16T08:20:05.857Z,954.30
2018-01-16T08:21:05.305Z,954.33
2018-01-16T08:22:05.894Z,954.49
2018-01-16T08:23:05.674Z,954.33
2018-01-16T08:24:05.580Z,954.46
2018-01-16T08:25:05.782Z,954.54
2018-01-16T08:26:05.826Z,954.54
2018-01-16T08:27:05.819Z,954.63
2018-01-16T08:28:05.725Z,954.63
2018-01-16T08:29:05.596Z,954.54
2018-01-16T08:30:05.649Z,954.54
2018-01-16T08:31:05.523Z,954.46
2018-01-16T08:32:05.605Z,954.63
2018-01-16T08:33:05.364Z,954.49
2018-01-16T08:34:04.981Z,954.68
2018-01-16T08:35:05.907Z,954.71
2018-01-16T08:36:05.645Z,954.76
2018-01-16T08:37:05.250Z,954.87
2018-01-16T08:38:05.102Z,954.85
2018-01-16T08:39:04.972Z,954.71
2018-01-16T08:40:05.578Z,954.82
2018-01-16T08:41:05.561Z,954.88
2018-01-16T08:42:05.571Z,954.63
2018-01-16T08:43:05.411Z,954.68
2018-01-16T08:44:05.901Z,954.80
2018-01-16T08:45:05.787Z,954.74
2018-01-16T08:46:05.336Z,954.80
2018-01-16T08:47:05.235Z,954.80
2018-01-16T08:48:05.761Z,954.89
2018-01-16T08:49:05.269Z,954.81
2018-01-16T08:50:05.281Z,954.69
2018-01-16T08:51:04.959Z,954.67
2018-01-16T08:52:05.515Z,954.64
2018-01-16T08:53:05.160Z,954.75
2018-01-16T08:54:05.086Z,954.60
2018-01-16T08:55:05.962Z,954.64
2018-01-16T08:56:10.962Z,954.67
2018-01-16T08:57:05.786Z,954.67
2018-01-16T08:58:05.686Z,954.60
2018-01-16T08:59:05.267Z,954.79
2018-01-16T09:00:05.255Z,954.70
2018-01-16T09:01:05.365Z,954.60
2018-01-16T09:02:05.590Z,954.73
2018-01-16T09:03:05.818Z,954.79
2018-01-16T09:04:10.858Z,954.65
2018-01-16T09:05:05.232Z,954.65
2018-01-16T09:06:05.034Z,954.60
2018-01-16T09:07:05.447Z,954.60
2018-01-16T09:08:05.143Z,954.72
2018-01-16T09:09:05.563Z,954.69
2018-01-16T09:10:05.531Z,954.64
2018-01-16T09:11:05.626Z,954.72
2018-01-16T09:12:05.789Z,954.66
2018-01-16T09:13:05.508Z,954.74
2018-01-16T09:14:05.731Z,954.63
2018-01-16T09:15:04.938Z,954.65
2018-01-16T09:16:05.610Z,954.63
2018-01-16T09:17:05.896Z,954.62
2018-01-16T09:18:05.656Z,954.42
2018-01-16T09:19:05.568Z,954.58
2018-01-16T09:20:05.183Z,954.44
2018-01-16T09:21:05.228Z,954.65
2018-01-16T09:22:05.254Z,954.53
2018-01-16T09:23:05.921Z,954.62
2018-01-16T09:24:05.607Z,954.53
2018-01-16T09:25:05.376Z,954.34
2018-01-16T09:26:05.345Z,954.52
2018-01-16T09:27:05.239Z,954.46
2018-01-16T09:28:05.899Z,954.52
2018-01-16T09:29:05.924Z,954.64
2018-01-16T09:30:05.019Z,954.54
2018-01-16T09:31:05.759Z,954.51
2018-01-16T09:32:05.352Z,954.75
2018-01-16T09:33:06.079Z,954.72
2018-01-16T09:34:05.783Z,954.74
2018-01-16T09:35:05.716Z,954.83
2018-01-16T09:36:05.287Z,954.71
2018-01-16T09:37:04.981Z,954.63
2018-01-16T09:38:05.602Z,954.63
2018-01-16T09:39:05.729Z,954.71
2018-01-16T09:40:06.024Z,954.71
2018-01-16T09:41:05.758Z,954.65
2018-01-16T09:42:05.260Z,954.76
2018-01-16T09:43:05.058Z,954.65
2018-01-16T09:44:05.621Z,954.76
2018-01-16T09:45:05.890Z,954.65
2018-01-16T09:46:05.697Z,954.49
2018-01-16T09:47:05.570Z,954.46
2018-01-16T09:48:05.056Z,954.58
2018-01-16T09:49:05.722Z,954.38
2018-01-16T09:50:05.266Z,954.43
2018-01-16T09:51:05.365Z,954.65
2018-01-16T09:52:06.071Z,954.54
2018-01-16T09:53:05.977Z,954.43
2018-01-16T09:54:05.478Z,954.51
2018-01-16T09:55:05.418Z,954.51
2018-01-16T09:56:05.306Z,954.40
2018-01-16T09:57:05.129Z,954.45
2018-01-16T09:58:05.736Z,954.48
2018-01-16T09:59:05.809Z,954.40
2018-01-16T10:00:05.471Z,954.45
2018-01-16T10:01:06.021Z,954.51
2018-01-16T10:02:05.328Z,954.32
2018-01-16T10:03:05.896Z,954.29
2018-01-16T10:04:05.740Z,954.26
2018-01-16T10:05:05.721Z,954.29
2018-01-16T10:06:05.575Z,954.42
2018-01-16T10:07:05.147Z,954.32
2018-01-16T10:08:05.308Z,954.20
2018-01-16T10:09:05.244Z,954.20
2018-01-16T10:10:05.450Z,954.17
2018-01-16T10:11:05.303Z,954.09
2018-01-16T10:12:05.895Z,954.18
2018-01-16T10:13:05.889Z,954.09
2018-01-16T10:14:05.504Z,954.20
2018-01-16T10:15:05.374Z,954.17
2018-01-16T10:16:05.281Z,953.98
2018-01-16T10:17:06.093Z,954.06
2018-01-16T10:18:05.907Z,953.97
2018-01-16T10:19:05.856Z,953.92
2018-01-16T10:20:05.807Z,953.86
2018-01-16T10:21:05.321Z,953.74
2018-01-16T10:22:05.456Z,953.80
2018-01-16T10:23:05.143Z,953.83
2018-01-16T10:24:05.594Z,953.77
2018-01-16T10:25:05.637Z,953.66
2018-01-16T10:26:05.278Z,953.65
2018-01-16T10:27:04.986Z,953.63
2018-01-16T10:28:05.411Z,953.68
2018-01-16T10:29:10.073Z,953.65
2018-01-16T10:30:05.304Z,953.70
2018-01-16T10:31:05.110Z,953.73
2018-01-16T10:32:05.272Z,953.61
2018-01-16T10:33:05.589Z,953.80
2018-01-16T10:34:05.850Z,953.72
2018-01-16T10:35:10.722Z,953.77
2018-01-16T10:36:05.705Z,953.83
2018-01-16T10:37:05.524Z,953.80
2018-01-16T10:38:05.246Z,953.94
2018-01-16T10:39:05.040Z,953.91
2018-01-16T10:40:05.432Z,953.85
2018-01-16T10:41:05.086Z,953.82
2018-01-16T10:42:05.008Z,953.88
2018-01-16T10:43:04.923Z,953.71
2018-01-16T10:44:05.797Z,953.82
2018-01-16T10:45:05.444Z,953.79
2018-01-16T10:46:05.614Z,954.05
2018-01-16T10:47:05.228Z,953.71
2018-01-16T10:48:05.864Z,953.77
2018-01-16T10:49:05.790Z,953.82
2018-01-16T10:50:05.567Z,953.77
2018-01-16T10:51:05.073Z,953.77
2018-01-16T10:52:05.608Z,953.77
2018-01-16T10:53:05.672Z,953.80
2018-01-16T10:54:05.143Z,953.71
2018-01-16T10:55:05.830Z,953.80
2018-01-16T10:56:05.249Z,953.74
2018-01-16T10:57:06.006Z,953.66
2018-01-16T10:58:05.328Z,953.74
2018-01-16T10:59:05.448Z,953.66
2018-01-16T11:00:05.480Z,953.71
2018-01-16T11:01:04.957Z,953.71
2018-01-16T11:02:05.988Z,953.58
2018-01-16T11:03:10.781Z,953.66
2018-01-16T11:04:05.799Z,953.66
2018-01-16T11:05:05.451Z,953.63
2018-01-16T11:06:05.131Z,953.69
2018-01-16T11:07:05.676Z,953.66
2018-01-16T11:08:04.975Z,953.60
2018-01-16T11:09:05.098Z,953.52
2018-01-16T11:10:05.104Z,953.49
2018-01-16T11:11:05.639Z,953.49
2018-01-16T11:12:05.439Z,953.52
2018-01-16T11:13:05.275Z,953.32
2018-01-16T11:14:05.323Z,953.32
2018-01-16T11:15:05.364Z,953.37
2018-01-16T11:16:05.612Z,953.21
2018-01-16T11:17:04.999Z,953.37
2018-01-16T11:18:05.540Z,953.32
2018-01-16T11:19:05.565Z,953.26
2018-01-16T11:20:05.219Z,953.26
2018-01-16T11:21:05.203Z,953.15
2018-01-16T11:22:05.833Z,953.20
2018-01-16T11:23:05.825Z,953.26
2018-01-16T11:24:05.051Z,953.06
2018-01-16T11:25:05.540Z,953.03
2018-01-16T11:26:05.338Z,953.06
2018-01-16T11:27:05.868Z,953.03
2018-01-16T11:28:05.111Z,953.01
2018-01-16T11:29:05.034Z,952.98
2018-01-16T11:30:05.584Z,952.98
2018-01-16T11:31:06.213Z,953.09
2018-01-16T11:32:05.477Z,953.06
2018-01-16T11:33:06.146Z,953.11
2018-01-16T11:34:05.824Z,952.97
2018-01-16T11:35:05.571Z,952.94
2018-01-16T11:36:05.528Z,952.97
2018-01-16T11:37:05.159Z,952.97
2018-01-16T11:38:05.208Z,953.02
2018-01-16T11:39:05.985Z,952.89
2018-01-16T11:40:05.711Z,952.93
2018-01-16T11:41:05.937Z,952.99
2018-01-16T11:42:06.016Z,952.96
2018-01-16T11:43:05.828Z,952.88
2018-01-16T11:44:05.938Z,952.91
2018-01-16T11:45:05.941Z,952.98
2018-01-16T11:46:05.599Z,952.97
2018-01-16T11:47:05.156Z,952.84
2018-01-16T11:48:05.911Z,952.81
2018-01-16T11:49:05.913Z,952.67
2018-01-16T11:50:05.558Z,952.73
2018-01-16T11:51:04.994Z,952.73
2018-01-16T11:52:05.098Z,952.97
2018-01-16T11:53:05.696Z,952.84
2018-01-16T11:54:05.540Z,952.79
2018-01-16T11:55:05.531Z,952.81
2018-01-16T11:56:05.031Z,952.50
2018-01-16T11:57:05.684Z,952.23
2018-01-16T11:58:05.853Z,952.31
2018-01-16T11:59:04.935Z,952.31
2018-01-16T12:00:05.849Z,952.46
2018-01-16T12:01:05.743Z,952.71
2018-01-16T12:02:05.462Z,952.60
2018-01-16T12:03:05.449Z,952.69
2018-01-16T12:04:06.038Z,952.52
2018-01-16T12:05:05.336Z,952.69
2018-01-16T12:06:05.064Z,952.72
2018-01-16T12:07:05.390Z,952.69
2018-01-16T12:08:05.225Z,952.64
2018-01-16T12:09:05.999Z,952.61
2018-01-16T12:10:05.886Z,952.89
2018-01-16T12:11:05.648Z,952.78
2018-01-16T12:12:05.687Z,952.89
2018-01-16T12:13:05.464Z,952.69
2018-01-16T12:14:05.037Z,952.72
2018-01-16T12:15:05.184Z,952.70
2018-01-16T12:16:05.862Z,952.72
2018-01-16T12:17:05.825Z,952.70
2018-01-16T12:18:05.361Z,952.64
2018-01-16T12:19:05.075Z,952.55
2018-01-16T12:20:05.499Z,952.47
2018-01-16T12:21:05.251Z,952.45
2018-01-16T12:22:05.643Z,952.47
2018-01-16T12:23:05.361Z,952.53
2018-01-16T12:24:05.120Z,952.36
2018-01-16T12:25:05.291Z,952.36
2018-01-16T12:26:05.191Z,952.44
2018-01-16T12:27:05.054Z,952.33
2018-01-16T12:28:05.712Z,952.39